Time;durP1;ratioP1;P1;durP2;ratioP2;P2;SDS_P1;SDS_P2;PMS_P1;PMS_P2;Temp;Humidity;BMP_temperature;BMP_pressure;BME280_temperature;BME280_humidity;BME280_pressure;Samples;Min_cycle;Max_cycle;Signal;HPM_P1;HPM_P2
2021/03/13 00:00:32;;;;;;;11.77;3.20;;;8.20;41.20;;;;;;5010295;28;20395;-72
2021/03/13 00:02:58;;;;;;;13.43;3.20;;;8.20;41.20;;;;;;5010481;28;20483;-72
2021/03/13 00:05:31;;;;;;;9.50;2.90;;;8.20;41.10;;;;;;5010442;28;20376;-71
2021/03/13 00:07:56;;;;;;;18.07;2.93;;;8.20;41.00;;;;;;5010691;28;20384;-70
2021/03/13 00:10:22;;;;;;;10.43;3.05;;;8.20;41.20;;;;;;5010552;28;20380;-72
2021/03/13 00:12:49;;;;;;;14.55;2.83;;;8.20;41.20;;;;;;4993258;28;20424;-72
2021/03/13 00:15:15;;;;;;;12.43;2.97;;;8.30;40.90;;;;;;5010380;28;20471;-71
2021/03/13 00:17:43;;;;;;;14.25;2.90;;;8.30;41.10;;;;;;5010604;28;20727;-72
2021/03/13 00:20:11;;;;;;;10.40;2.78;;;8.40;40.50;;;;;;5009919;28;20766;-72
2021/03/13 00:22:37;;;;;;;13.52;2.40;;;8.40;40.40;;;;;;5010365;28;20412;-71
2021/03/13 00:25:05;;;;;;;11.45;2.70;;;8.50;40.00;;;;;;5010527;28;20396;-71
2021/03/13 00:27:30;;;;;;;11.93;3.00;;;8.50;40.10;;;;;;5010315;28;20399;-71
2021/03/13 00:29:56;;;;;;;15.38;2.70;;;8.60;40.00;;;;;;4992537;28;20527;-70
2021/03/13 00:32:21;;;;;;;12.10;2.92;;;8.50;40.50;;;;;;5013392;28;20818;-71
2021/03/13 00:34:47;;;;;;;13.20;2.85;;;8.50;40.70;;;;;;5014687;28;20389;-71
2021/03/13 00:37:12;;;;;;;10.40;2.53;;;8.60;40.70;;;;;;5014695;28;20400;-71
2021/03/13 00:39:38;;;;;;;13.52;2.50;;;8.50;40.90;;;;;;5014453;28;20452;-71
2021/03/13 00:42:04;;;;;;;11.98;2.55;;;8.50;41.10;;;;;;5014626;28;20392;-73
2021/03/13 00:44:29;;;;;;;10.98;2.50;;;8.60;41.50;;;;;;5013625;28;20447;-71
2021/03/13 00:46:55;;;;;;;8.80;2.93;;;8.50;41.60;;;;;;5013718;28;20476;-70
2021/03/13 00:49:20;;;;;;;6.60;2.40;;;8.60;42.00;;;;;;5013234;28;20476;-72
2021/03/13 00:51:46;;;;;;;9.13;2.10;;;8.50;43.60;;;;;;5013555;28;20385;-71
2021/03/13 00:54:11;;;;;;;4.47;1.88;;;8.50;43.60;;;;;;5013349;28;20385;-71
2021/03/13 00:56:37;;;;;;;7.15;2.10;;;8.40;44.60;;;;;;5014201;28;20397;-71
2021/03/13 00:59:02;;;;;;;5.00;2.15;;;8.30;46.00;;;;;;5016383;28;20389;-70
2021/03/13 01:01:28;;;;;;;5.15;2.20;;;8.20;47.10;;;;;;5016378;28;20388;-71
2021/03/13 01:03:54;;;;;;;8.20;2.60;;;8.30;48.40;;;;;;5015904;28;20813;-70
2021/03/13 01:06:19;;;;;;;5.35;2.40;;;8.30;48.60;;;;;;5016159;28;20391;-70
2021/03/13 01:08:45;;;;;;;6.75;2.35;;;8.30;49.10;;;;;;5015860;28;20428;-70
2021/03/13 01:11:10;;;;;;;6.80;2.60;;;8.20;50.00;;;;;;5016245;28;20415;-71
2021/03/13 01:13:36;;;;;;;7.65;2.65;;;8.20;50.80;;;;;;5015602;28;20442;-70
2021/03/13 01:16:02;;;;;;;7.00;2.85;;;8.10;52.50;;;;;;5013698;28;20392;-71
2021/03/13 01:18:27;;;;;;;5.20;2.85;;;8.10;52.70;;;;;;5013027;28;20393;-71
2021/03/13 01:20:53;;;;;;;6.10;2.60;;;8.10;53.60;;;;;;5012935;28;20470;-70
2021/03/13 01:23:18;;;;;;;6.67;3.27;;;8.10;54.40;;;;;;5012935;28;20478;-70
2021/03/13 01:25:44;;;;;;;9.47;3.30;;;8.20;54.90;;;;;;5012938;28;20492;-71
2021/03/13 01:28:10;;;;;;;6.43;3.20;;;8.20;55.10;;;;;;5013542;28;20385;-71
2021/03/13 01:30:36;;;;;;;9.67;3.57;;;8.10;55.90;;;;;;5013475;28;20439;-70
2021/03/13 01:33:02;;;;;;;12.85;3.63;;;8.00;57.00;;;;;;5013582;28;20404;-70
2021/03/13 01:35:27;;;;;;;10.75;3.58;;;8.10;57.80;;;;;;5013561;28;20443;-71
2021/03/13 01:37:54;;;;;;;8.60;3.70;;;8.00;58.60;;;;;;5013452;28;20470;-71
2021/03/13 01:40:20;;;;;;;7.80;3.38;;;8.00;59.40;;;;;;5013268;28;20388;-71
2021/03/13 01:42:47;;;;;;;9.23;3.97;;;8.00;60.30;;;;;;5013063;28;20392;-71
2021/03/13 01:45:17;;;;;;;6.07;3.50;;;8.00;60.40;;;;;;5013444;28;20393;-71
2021/03/13 01:47:44;;;;;;;6.20;3.40;;;8.10;61.20;;;;;;5013463;28;20419;-71
2021/03/13 01:50:12;;;;;;;8.25;3.80;;;8.00;62.20;;;;;;5013345;28;20459;-69
2021/03/13 01:52:37;;;;;;;11.40;3.83;;;8.00;63.20;;;;;;5013021;28;20817;-70
2021/03/13 01:55:11;;;;;;;8.00;4.10;;;7.90;64.50;;;;;;5013233;28;20479;-70
2021/03/13 01:57:37;;;;;;;9.70;4.07;;;8.00;63.90;;;;;;5013488;28;20392;-71
2021/03/13 02:00:09;;;;;;;10.20;4.10;;;8.10;62.70;;;;;;5012797;28;20385;-71
2021/03/13 02:02:35;;;;;;;8.13;3.50;;;8.00;63.60;;;;;;5012923;28;20754;-70
2021/03/13 02:05:01;;;;;;;8.88;3.78;;;8.00;65.30;;;;;;5012680;28;20409;-71
2021/03/13 02:07:50;;;;;;;4.95;3.10;;;8.10;61.10;;;;;;5012229;28;20435;-71
2021/03/13 02:10:33;;;;;;;7.13;3.88;;;7.90;62.70;;;;;;5012006;28;20384;-72
2021/03/13 02:13:25;;;;;;;4.78;3.53;;;7.90;62.90;;;;;;5011938;28;20879;-71
2021/03/13 02:15:53;;;;;;;5.47;3.40;;;7.90;65.10;;;;;;5012109;28;20439;-71
2021/03/13 02:18:42;;;;;;;5.10;2.90;;;7.90;65.10;;;;;;5011741;28;20839;-71
2021/03/13 02:21:42;;;;;;;5.45;3.30;;;7.90;64.20;;;;;;5011965;28;20393;-71
2021/03/13 02:24:26;;;;;;;5.70;3.53;;;7.90;64.90;;;;;;5004372;28;20420;-70
2021/03/13 02:27:02;;;;;;;3.60;3.30;;;7.80;65.60;;;;;;5011751;28;20774;-70
2021/03/13 02:29:52;;;;;;;7.43;3.80;;;7.80;66.70;;;;;;5011466;28;20386;-73
2021/03/13 02:32:42;;;;;;;8.90;3.90;;;7.80;65.80;;;;;;5011310;28;20389;-70
2021/03/13 02:35:11;;;;;;;8.40;4.20;;;7.90;66.40;;;;;;5011742;28;20399;-71
2021/03/13 02:37:45;;;;;;;4.10;3.65;;;7.80;66.70;;;;;;5011814;28;20397;-70
2021/03/13 02:40:13;;;;;;;3.42;3.10;;;7.80;66.20;;;;;;5011537;28;20483;-71
2021/03/13 02:42:47;;;;;;;9.80;3.58;;;7.80;66.50;;;;;;5011688;28;20392;-70
2021/03/13 02:45:13;;;;;;;6.72;3.33;;;7.70;67.70;;;;;;5011536;28;20415;-71
2021/03/13 02:47:43;;;;;;;4.70;3.13;;;7.70;68.20;;;;;;5011410;28;20864;-72
2021/03/13 02:50:10;;;;;;;4.03;2.63;;;7.70;68.70;;;;;;5011035;28;20392;-71
2021/03/13 02:52:38;;;;;;;6.45;2.60;;;7.70;68.30;;;;;;5010222;28;20464;-70
2021/03/13 02:55:04;;;;;;;5.25;2.85;;;7.60;68.50;;;;;;5010572;28;20428;-71
2021/03/13 02:57:31;;;;;;;4.85;2.42;;;7.60;69.30;;;;;;5011266;28;20397;-71
2021/03/13 02:59:57;;;;;;;3.40;2.30;;;7.70;69.70;;;;;;5011094;28;20408;-70
2021/03/13 03:02:23;;;;;;;5.93;2.90;;;7.70;69.70;;;;;;5011665;28;20399;-71
2021/03/13 03:04:50;;;;;;;4.70;2.73;;;7.70;70.20;;;;;;5011780;28;20502;-72
2021/03/13 03:07:17;;;;;;;2.10;1.85;;;7.70;69.60;;;;;;5011704;28;20380;-71
2021/03/13 03:09:44;;;;;;;3.65;2.30;;;7.70;69.10;;;;;;5011653;28;20428;-71
2021/03/13 03:12:11;;;;;;;3.58;2.30;;;7.70;69.20;;;;;;5011503;28;20435;-71
2021/03/13 03:14:39;;;;;;;4.25;2.20;;;7.70;70.00;;;;;;5011526;28;20384;-71
2021/03/13 03:17:07;;;;;;;7.90;2.65;;;7.80;69.60;;;;;;5011175;28;20401;-71
2021/03/13 03:19:34;;;;;;;2.80;1.80;;;7.70;69.80;;;;;;5011305;28;20396;-71
2021/03/13 03:22:01;;;;;;;2.38;2.08;;;7.60;71.50;;;;;;5011590;28;20397;-71
2021/03/13 03:24:29;;;;;;;6.00;2.10;;;7.70;70.40;;;;;;5011038;28;20443;-70
2021/03/13 03:26:54;;;;;;;3.25;2.08;;;7.70;70.50;;;;;;5011714;28;20396;-71
2021/03/13 03:29:21;;;;;;;7.47;2.70;;;7.60;72.70;;;;;;5010987;28;20385;-71
2021/03/13 03:31:46;;;;;;;3.80;2.55;;;7.60;71.90;;;;;;5011304;28;20385;-71
2021/03/13 03:34:12;;;;;;;4.70;2.40;;;7.70;72.30;;;;;;5011027;28;20404;-71
2021/03/13 03:36:37;;;;;;;3.10;2.80;;;7.70;71.90;;;;;;5011383;28;20475;-70
2021/03/13 03:39:03;;;;;;;5.17;2.47;;;7.60;72.20;;;;;;4993709;28;20401;-71
2021/03/13 03:41:33;;;;;;;3.65;2.28;;;7.60;71.80;;;;;;5011558;28;20750;-71
2021/03/13 03:44:04;;;;;;;3.03;2.55;;;7.70;71.70;;;;;;5011018;28;20890;-71
2021/03/13 03:46:35;;;;;;;4.30;2.73;;;7.70;72.60;;;;;;5010901;28;20388;-71
2021/03/13 03:49:04;;;;;;;2.47;2.28;;;7.70;72.70;;;;;;5010944;28;21026;-71
2021/03/13 03:51:30;;;;;;;2.90;2.00;;;7.70;73.70;;;;;;5011447;28;20806;-70
2021/03/13 03:53:57;;;;;;;1.80;1.60;;;7.60;72.80;;;;;;5010978;28;20384;-71
2021/03/13 03:56:24;;;;;;;3.55;1.60;;;7.70;71.90;;;;;;5010536;28;20399;-71
2021/03/13 03:58:52;;;;;;;2.30;1.42;;;7.70;70.60;;;;;;5010290;28;20389;-72
2021/03/13 04:01:22;;;;;;;2.20;1.60;;;7.70;71.30;;;;;;5010499;28;20388;-71
2021/03/13 04:03:51;;;;;;;2.00;1.40;;;7.60;71.50;;;;;;5010618;28;20408;-72
2021/03/13 04:06:18;;;;;;;1.75;1.60;;;7.60;70.90;;;;;;5013189;28;20433;-71
2021/03/13 04:08:46;;;;;;;3.20;1.70;;;7.60;71.20;;;;;;5014239;28;20420;-71
2021/03/13 04:11:15;;;;;;;2.30;1.80;;;7.50;72.50;;;;;;5014364;28;20423;-69
2021/03/13 04:13:43;;;;;;;2.42;2.10;;;7.60;71.70;;;;;;5014318;28;20461;-71
2021/03/13 04:16:10;;;;;;;3.70;1.50;;;7.60;71.30;;;;;;5013948;28;20877;-70
2021/03/13 04:18:36;;;;;;;2.60;1.23;;;7.60;70.50;;;;;;5014279;28;20483;-71
2021/03/13 04:21:02;;;;;;;1.80;1.30;;;7.60;70.50;;;;;;5013882;28;20405;-71
2021/03/13 04:23:28;;;;;;;2.40;1.70;;;7.60;71.10;;;;;;5013897;28;20405;-70
2021/03/13 04:25:55;;;;;;;3.15;1.83;;;7.70;69.80;;;;;;5013968;28;20851;-70
2021/03/13 04:28:21;;;;;;;3.38;1.58;;;7.80;69.80;;;;;;5014128;28;20381;-72
2021/03/13 04:30:48;;;;;;;2.97;1.80;;;7.80;69.30;;;;;;5013575;28;20415;-70
2021/03/13 04:33:18;;;;;;;6.35;1.70;;;7.90;69.60;;;;;;5013639;28;20409;-71
2021/03/13 04:35:46;;;;;;;3.17;1.77;;;7.80;69.90;;;;;;5013854;28;20404;-72
2021/03/13 04:38:16;;;;;;;1.70;1.60;;;7.80;71.70;;;;;;5013723;28;20385;-71
2021/03/13 04:40:43;;;;;;;3.42;1.70;;;7.80;72.20;;;;;;5013568;28;20797;-71
2021/03/13 04:43:09;;;;;;;7.27;2.33;;;7.80;71.40;;;;;;5013497;28;20496;-71
2021/03/13 04:45:35;;;;;;;4.25;2.10;;;7.90;71.80;;;;;;5013574;28;20387;-71
2021/03/13 04:48:02;;;;;;;2.80;1.88;;;8.00;71.10;;;;;;5013569;28;20385;-70
2021/03/13 04:50:28;;;;;;;2.65;1.85;;;8.00;71.20;;;;;;5013318;28;20388;-71
2021/03/13 04:52:53;;;;;;;8.00;2.20;;;7.90;72.50;;;;;;5013496;28;20451;-71
2021/03/13 04:55:19;;;;;;;2.67;1.50;;;7.90;73.30;;;;;;5012259;28;20385;-71
2021/03/13 04:57:45;;;;;;;6.43;1.73;;;7.90;72.90;;;;;;5013495;28;20389;-71
2021/03/13 05:00:16;;;;;;;5.38;1.60;;;7.90;73.00;;;;;;5013155;28;20392;-71
2021/03/13 05:02:41;;;;;;;4.32;1.90;;;7.90;73.80;;;;;;5013380;28;20467;-71
2021/03/13 05:05:08;;;;;;;3.10;1.10;;;7.80;74.30;;;;;;5013215;28;20894;-71
2021/03/13 05:07:35;;;;;;;1.42;1.33;;;7.90;72.70;;;;;;5013340;28;20384;-71
2021/03/13 05:10:01;;;;;;;3.70;1.40;;;7.80;73.90;;;;;;5013317;28;20936;-71
2021/03/13 05:12:27;;;;;;;3.30;1.60;;;7.80;75.10;;;;;;5013315;28;20503;-71
2021/03/13 05:14:52;;;;;;;2.10;1.30;;;7.90;73.50;;;;;;4995563;28;20436;-71
2021/03/13 05:17:19;;;;;;;2.53;1.40;;;8.00;72.60;;;;;;5012361;28;20458;-71
2021/03/13 05:19:44;;;;;;;2.37;1.10;;;7.90;74.00;;;;;;5013117;28;20421;-71
2021/03/13 05:22:10;;;;;;;3.53;1.30;;;7.80;74.70;;;;;;5013265;28;20400;-71
2021/03/13 05:24:36;;;;;;;4.10;1.10;;;7.90;74.00;;;;;;5013105;28;20471;-71
2021/03/13 05:27:02;;;;;;;2.80;1.23;;;7.90;74.10;;;;;;5013092;28;20381;-71
2021/03/13 05:29:27;;;;;;;2.92;1.30;;;8.00;72.90;;;;;;5012712;28;20381;-71
2021/03/13 05:31:53;;;;;;;1.40;1.02;;;8.00;73.30;;;;;;5012969;28;20381;-71
2021/03/13 05:34:19;;;;;;;3.00;1.30;;;8.00;73.30;;;;;;5012877;28;20589;-71
2021/03/13 05:36:44;;;;;;;4.50;1.10;;;8.00;73.80;;;;;;5012916;28;20786;-70
2021/03/13 05:39:10;;;;;;;1.23;1.00;;;8.10;73.50;;;;;;5012640;28;20399;-71
2021/03/13 05:41:36;;;;;;;1.90;1.40;;;8.10;71.40;;;;;;5012830;28;20381;-71
2021/03/13 05:44:05;;;;;;;1.70;1.30;;;8.20;70.90;;;;;;5012539;28;20493;-70
2021/03/13 05:46:35;;;;;;;1.90;1.20;;;8.20;69.80;;;;;;5012503;28;20519;-71
2021/03/13 05:49:05;;;;;;;3.20;1.20;;;8.30;69.30;;;;;;5012320;28;20446;-72
2021/03/13 05:51:42;;;;;;;3.55;1.40;;;8.30;68.70;;;;;;5012139;28;20406;-72
2021/03/13 05:54:10;;;;;;;5.75;1.60;;;8.30;68.50;;;;;;4995011;28;20924;-70
2021/03/13 05:56:36;;;;;;;3.05;1.15;;;8.20;68.80;;;;;;5014741;28;20415;-71
2021/03/13 05:59:02;;;;;;;2.60;1.63;;;8.30;66.20;;;;;;5014482;28;20393;-71
2021/03/13 06:01:29;;;;;;;1.40;1.20;;;8.40;66.10;;;;;;5014476;28;20404;-70
2021/03/13 06:03:56;;;;;;;2.40;1.40;;;8.50;65.50;;;;;;5014628;28;20507;-70
2021/03/13 06:06:23;;;;;;;1.90;1.40;;;8.40;66.20;;;;;;5015007;28;20380;-70
2021/03/13 06:08:49;;;;;;;2.80;1.30;;;8.40;67.70;;;;;;5014828;28;20396;-71
2021/03/13 06:11:20;;;;;;;4.50;1.30;;;8.50;65.50;;;;;;5014941;28;20384;-71
2021/03/13 06:13:45;;;;;;;3.13;1.20;;;8.50;63.50;;;;;;5014924;28;20396;-71
2021/03/13 06:16:11;;;;;;;2.30;1.13;;;8.60;62.80;;;;;;5014772;28;20396;-70
2021/03/13 06:18:52;;;;;;;2.30;0.90;;;8.70;61.40;;;;;;5014591;28;20407;-70
2021/03/13 06:21:22;;;;;;;2.30;1.00;;;8.70;61.30;;;;;;5014457;28;20392;-72
2021/03/13 06:23:49;;;;;;;1.88;0.80;;;8.80;60.20;;;;;;5014477;28;20901;-70
2021/03/13 06:26:17;;;;;;;0.80;0.70;;;8.90;58.00;;;;;;5014444;28;20645;-72
2021/03/13 06:28:42;;;;;;;1.58;1.10;;;8.90;57.40;;;;;;5013525;28;20388;-72
2021/03/13 06:31:12;;;;;;;1.90;1.00;;;8.90;58.40;;;;;;5013950;28;20434;-71
2021/03/13 06:33:38;;;;;;;3.53;0.90;;;8.90;57.70;;;;;;5013840;28;20920;-71
2021/03/13 06:36:05;;;;;;;2.53;0.80;;;9.00;57.80;;;;;;5014673;28;20381;-71
2021/03/13 06:38:33;;;;;;;2.05;0.80;;;9.00;58.40;;;;;;5013370;28;20868;-71
2021/03/13 06:41:15;;;;;;;1.80;1.00;;;9.00;57.60;;;;;;5011402;28;20408;-70
2021/03/13 06:43:41;;;;;;;1.80;0.90;;;9.10;56.80;;;;;;5011440;28;20404;-71
2021/03/13 06:46:07;;;;;;;3.30;0.93;;;9.10;56.90;;;;;;5011417;28;20395;-71
2021/03/13 06:48:57;;;;;;;2.60;0.80;;;9.10;56.90;;;;;;5011216;28;20389;-69
2021/03/13 06:51:23;;;;;;;1.45;0.90;;;9.20;57.20;;;;;;5011056;28;20431;-71
2021/03/13 06:54:02;;;;;;;1.90;1.00;;;9.30;53.60;;;;;;5011415;28;20707;-71
2021/03/13 06:56:30;;;;;;;2.50;1.10;;;9.30;54.70;;;;;;5011234;28;20385;-73
2021/03/13 06:58:58;;;;;;;2.90;0.80;;;9.40;54.40;;;;;;5010299;28;21344;-71
2021/03/13 07:01:31;;;;;;;1.15;0.80;;;9.40;52.70;;;;;;5011551;28;20392;-71
2021/03/13 07:03:58;;;;;;;1.40;0.90;;;9.40;52.60;;;;;;5013462;28;20518;-71
2021/03/13 07:06:25;;;;;;;2.38;0.95;;;9.50;52.40;;;;;;5013307;28;20385;-70
2021/03/13 07:08:52;;;;;;;3.20;1.00;;;9.50;52.10;;;;;;5013261;28;20431;-71
2021/03/13 07:11:24;;;;;;;1.60;0.80;;;9.60;50.90;;;;;;5013535;28;20399;-71
2021/03/13 07:13:54;;;;;;;1.20;0.80;;;9.60;50.80;;;;;;5013657;28;20388;-70
2021/03/13 07:16:36;;;;;;;2.35;0.90;;;9.60;49.90;;;;;;5013252;28;20423;-70
2021/03/13 07:19:06;;;;;;;1.90;1.00;;;9.60;50.20;;;;;;4994411;28;20430;-71
2021/03/13 07:21:36;;;;;;;1.85;0.80;;;9.60;50.20;;;;;;4993714;28;21272;-70
2021/03/13 07:24:12;;;;;;;1.50;1.00;;;9.60;52.70;;;;;;5010604;28;20401;-71
2021/03/13 07:26:40;;;;;;;3.50;0.90;;;9.40;57.40;;;;;;5010678;28;20763;-71
2021/03/13 07:29:09;;;;;;;3.63;0.80;;;9.40;59.00;;;;;;5011414;28;20393;-70
2021/03/13 07:31:40;;;;;;;1.60;0.90;;;9.10;62.60;;;;;;5012128;28;20391;-70
2021/03/13 07:34:31;;;;;;;2.92;1.00;;;8.80;48.10;;;;;;5014062;28;20401;-71
2021/03/13 07:36:58;;;;;;;1.88;1.40;;;8.40;50.80;;;;;;5014103;28;20384;-72
2021/03/13 07:39:29;;;;;;;2.75;0.82;;;8.20;54.60;;;;;;5014129;28;20399;-70
2021/03/13 07:42:10;;;;;;;1.52;0.90;;;8.10;58.20;;;;;;5019802;28;20410;-71
2021/03/13 07:44:36;;;;;;;1.70;0.90;;;8.00;57.30;;;;;;5020041;28;20765;-72
2021/03/13 07:47:02;;;;;;;1.70;1.20;;;7.90;54.70;;;;;;5020665;28;20471;-72
2021/03/13 07:49:30;;;;;;;2.20;1.10;;;8.00;55.40;;;;;;5019395;28;20384;-71
2021/03/13 07:51:59;;;;;;;2.50;1.05;;;8.00;49.80;;;;;;5020285;28;20391;-71
2021/03/13 07:54:26;;;;;;;6.38;0.93;;;8.00;46.90;;;;;;5001080;28;20396;-73
2021/03/13 07:56:52;;;;;;;5.50;1.10;;;7.90;44.80;;;;;;5018011;28;20438;-72
2021/03/13 07:59:44;;;;;;;1.90;0.90;;;8.00;43.20;;;;;;5016376;28;20392;-72
2021/03/13 08:02:28;;;;;;;1.13;0.90;;;8.10;42.20;;;;;;5017843;28;20475;-72
2021/03/13 08:05:00;;;;;;;3.78;0.90;;;8.20;38.20;;;;;;5018793;28;20488;-71
2021/03/13 08:07:27;;;;;;;1.33;0.93;;;8.20;38.90;;;;;;5019228;28;20417;-72
2021/03/13 08:09:53;;;;;;;2.30;1.00;;;8.30;37.10;;;;;;5019525;28;20438;-71
2021/03/13 08:12:41;;;;;;;3.72;1.00;;;8.30;37.50;;;;;;5001660;28;20457;-72
2021/03/13 08:15:29;;;;;;;2.72;1.10;;;8.40;37.30;;;;;;5019613;28;20385;-73
2021/03/13 08:17:55;;;;;;;2.17;1.00;;;8.40;37.20;;;;;;5019712;28;20487;-71
2021/03/13 08:20:29;;;;;;;2.20;1.10;;;8.50;36.40;;;;;;5019235;28;20389;-71
2021/03/13 08:23:13;;;;;;;1.88;0.93;;;8.50;36.30;;;;;;5020400;28;20438;-71
2021/03/13 08:25:55;;;;;;;4.95;1.25;;;8.60;37.30;;;;;;5002089;28;20919;-70
2021/03/13 08:28:48;;;;;;;2.67;1.27;;;8.70;36.80;;;;;;5017005;28;20508;-72
2021/03/13 08:31:23;;;;;;;1.90;0.90;;;8.70;37.60;;;;;;5016135;28;20380;-71
2021/03/13 08:33:53;;;;;;;3.15;1.00;;;8.70;37.10;;;;;;5016303;28;20396;-71
2021/03/13 08:36:20;;;;;;;4.45;1.20;;;8.70;37.40;;;;;;5016123;28;20388;-71
2021/03/13 08:39:01;;;;;;;4.63;1.10;;;8.70;37.50;;;;;;5016325;28;20396;-71
2021/03/13 08:41:42;;;;;;;5.57;1.17;;;8.70;38.40;;;;;;5016403;28;20381;-71
2021/03/13 08:44:25;;;;;;;4.55;1.30;;;8.70;38.80;;;;;;5016362;28;20436;-71
2021/03/13 08:47:00;;;;;;;4.70;1.23;;;8.90;39.10;;;;;;5018379;28;20384;-72
2021/03/13 08:49:29;;;;;;;4.93;1.10;;;8.90;39.00;;;;;;5019213;28;20404;-71
2021/03/13 08:52:10;;;;;;;2.80;1.00;;;9.00;38.10;;;;;;5016610;28;20376;-70
2021/03/13 08:54:41;;;;;;;3.97;1.10;;;9.00;38.50;;;;;;5014654;28;20738;-71
2021/03/13 08:57:10;;;;;;;4.95;1.40;;;9.00;38.40;;;;;;5013073;28;20389;-71
2021/03/13 08:59:37;;;;;;;3.25;1.20;;;9.00;38.90;;;;;;5012866;28;20393;-71
2021/03/13 09:02:12;;;;;;;4.38;1.17;;;9.00;39.30;;;;;;5012977;28;20455;-71
2021/03/13 09:04:42;;;;;;;2.90;1.00;;;9.10;39.00;;;;;;5013207;28;20797;-72
2021/03/13 09:07:09;;;;;;;3.38;1.20;;;9.10;38.50;;;;;;5015469;28;20508;-72
2021/03/13 09:09:37;;;;;;;5.23;1.40;;;9.20;40.00;;;;;;5016890;28;20420;-72
2021/03/13 09:12:11;;;;;;;3.70;1.20;;;9.30;37.10;;;;;;5012907;28;20381;-71
2021/03/13 09:14:42;;;;;;;3.40;1.00;;;9.40;37.50;;;;;;5012716;28;20377;-74
2021/03/13 09:17:09;;;;;;;7.45;1.20;;;9.40;36.90;;;;;;5013119;28;20905;-72
2021/03/13 09:19:35;;;;;;;3.80;1.20;;;9.40;36.80;;;;;;4995180;28;20462;-72
2021/03/13 09:22:10;;;;;;;5.50;1.00;;;9.50;36.80;;;;;;5012835;28;20389;-71
2021/03/13 09:24:36;;;;;;;3.03;1.35;;;9.50;37.80;;;;;;5012375;28;20894;-71
2021/03/13 09:27:03;;;;;;;5.50;1.50;;;9.60;35.60;;;;;;5012651;28;20421;-70
2021/03/13 09:29:34;;;;;;;4.13;1.50;;;9.70;35.50;;;;;;5012185;28;20378;-71
2021/03/13 09:32:02;;;;;;;7.57;1.70;;;9.70;35.80;;;;;;5012335;28;20385;-71
2021/03/13 09:34:30;;;;;;;5.90;1.40;;;9.80;34.30;;;;;;5012304;28;20392;-71
2021/03/13 09:36:55;;;;;;;4.70;1.70;;;9.70;35.40;;;;;;5012646;28;20381;-70
2021/03/13 09:39:24;;;;;;;11.85;2.30;;;9.60;35.70;;;;;;5012459;28;20387;-71
2021/03/13 09:42:13;;;;;;;6.55;1.60;;;9.40;36.70;;;;;;4994823;28;20897;-72
2021/03/13 09:44:41;;;;;;;7.72;1.90;;;9.40;36.30;;;;;;5016366;28;20411;-72
2021/03/13 09:47:21;;;;;;;10.18;2.33;;;9.40;36.00;;;;;;5017290;28;20389;-72
2021/03/13 09:49:58;;;;;;;8.45;2.50;;;9.60;35.10;;;;;;5016285;28;20909;-73
2021/03/13 09:52:24;;;;;;;10.85;2.50;;;9.80;35.00;;;;;;5015929;28;20386;-72
2021/03/13 09:54:57;;;;;;;10.90;2.42;;;9.90;32.00;;;;;;5016130;28;20393;-70
2021/03/13 09:57:26;;;;;;;11.37;2.50;;;9.90;31.80;;;;;;5013470;28;20397;-72
2021/03/13 09:59:51;;;;;;;5.47;2.10;;;9.90;31.40;;;;;;4993862;28;20396;-73
2021/03/13 10:02:17;;;;;;;7.90;2.50;;;10.10;30.90;;;;;;5011657;28;20393;-72
2021/03/13 10:04:43;;;;;;;9.10;2.10;;;10.30;30.90;;;;;;5011222;28;20471;-72
2021/03/13 10:07:08;;;;;;;9.60;2.50;;;10.40;30.10;;;;;;5011558;28;20388;-74
2021/03/13 10:09:52;;;;;;;13.00;2.50;;;10.50;29.50;;;;;;5011708;28;20447;-74
2021/03/13 10:12:32;;;;;;;13.45;2.38;;;10.70;28.80;;;;;;5012051;28;20381;-72
2021/03/13 10:15:25;;;;;;;8.35;2.50;;;10.70;29.30;;;;;;5011539;28;20389;-72
2021/03/13 10:18:07;;;;;;;11.80;2.22;;;10.70;29.50;;;;;;5011908;28;20388;-73
2021/03/13 10:20:53;;;;;;;7.28;2.20;;;10.70;29.00;;;;;;5011263;28;20857;-71
2021/03/13 10:23:37;;;;;;;10.65;2.30;;;10.70;29.40;;;;;;5011569;28;20384;-72
2021/03/13 10:26:15;;;;;;;9.40;2.80;;;10.80;29.00;;;;;;5011607;28;20376;-72
2021/03/13 10:28:45;;;;;;;12.10;2.80;;;11.00;26.70;;;;;;5011355;28;20751;-73
2021/03/13 10:31:12;;;;;;;13.75;3.03;;;10.90;26.60;;;;;;5011776;28;20395;-71
2021/03/13 10:33:44;;;;;;;15.73;3.53;;;10.80;25.50;;;;;;5011031;28;20401;-71
2021/03/13 10:36:10;;;;;;;12.80;3.50;;;10.90;26.70;;;;;;5011346;28;20416;-72
2021/03/13 10:38:44;;;;;;;15.93;3.25;;;11.20;23.50;;;;;;5011799;28;20399;-71
2021/03/13 10:41:11;;;;;;;14.77;3.50;;;11.30;23.30;;;;;;5011342;28;20388;-72
2021/03/13 10:43:42;;;;;;;13.50;3.42;;;11.40;22.90;;;;;;5011172;28;20409;-72
2021/03/13 10:46:21;;;;;;;14.40;3.20;;;11.40;22.40;;;;;;5011057;28;20392;-70
2021/03/13 10:48:46;;;;;;;12.90;3.60;;;11.50;23.70;;;;;;5010940;28;20755;-73
2021/03/13 10:51:24;;;;;;;11.77;2.80;;;11.30;22.10;;;;;;5011101;28;20393;-72
2021/03/13 10:53:51;;;;;;;13.45;3.53;;;11.10;22.50;;;;;;5010953;28;20428;-71
2021/03/13 10:56:17;;;;;;;18.88;3.42;;;11.00;23.70;;;;;;5011092;28;20443;-74
2021/03/13 10:58:49;;;;;;;18.15;3.40;;;10.90;27.10;;;;;;5010890;28;20392;-71
2021/03/13 11:01:16;;;;;;;17.70;3.30;;;10.50;29.20;;;;;;5011184;28;20755;-72
2021/03/13 11:03:43;;;;;;;21.95;3.08;;;10.20;30.50;;;;;;5011135;28;20408;-72
2021/03/13 11:06:13;;;;;;;10.18;2.95;;;10.00;32.70;;;;;;5010128;28;20385;-72
2021/03/13 11:08:38;;;;;;;13.73;3.38;;;9.80;35.60;;;;;;5009994;28;20885;-70
2021/03/13 11:11:05;;;;;;;11.38;3.00;;;9.70;36.80;;;;;;5010164;28;20381;-72
2021/03/13 11:13:31;;;;;;;17.17;3.50;;;9.60;36.00;;;;;;5010809;28;20381;-72
2021/03/13 11:15:57;;;;;;;15.25;3.60;;;9.60;36.90;;;;;;5009996;28;20393;-72
2021/03/13 11:18:23;;;;;;;12.60;3.20;;;9.80;35.90;;;;;;5010648;28;20747;-72
2021/03/13 11:20:49;;;;;;;9.90;3.20;;;10.20;32.00;;;;;;5010450;28;20423;-71
2021/03/13 11:23:15;;;;;;;10.73;2.65;;;10.30;29.30;;;;;;5011501;28;20381;-71
2021/03/13 11:25:41;;;;;;;14.83;2.67;;;10.20;27.20;;;;;;5010461;28;20423;-71
2021/03/13 11:28:08;;;;;;;16.92;2.67;;;10.10;26.90;;;;;;4993124;28;20786;-72
2021/03/13 11:30:34;;;;;;;9.55;2.72;;;10.20;25.90;;;;;;5010807;28;20381;-72
2021/03/13 11:33:00;;;;;;;12.73;3.63;;;10.30;25.30;;;;;;5010299;28;20401;-73
2021/03/13 11:35:26;;;;;;;8.63;2.50;;;10.40;26.80;;;;;;5016704;28;20389;-71
2021/03/13 11:37:52;;;;;;;14.73;3.20;;;10.70;25.30;;;;;;5030306;28;20396;-71
2021/03/13 11:40:20;;;;;;;10.05;2.90;;;10.80;24.90;;;;;;5031641;28;20389;-71
2021/03/13 11:42:46;;;;;;;13.98;2.53;;;10.80;25.20;;;;;;5034616;28;20408;-71
2021/03/13 11:45:13;;;;;;;12.73;2.87;;;10.40;27.60;;;;;;5034161;28;20412;-72
2021/03/13 11:47:40;;;;;;;12.70;3.10;;;9.90;32.80;;;;;;5026949;28;20384;-71
2021/03/13 11:50:12;;;;;;;11.70;3.28;;;9.60;42.20;;;;;;5022668;28;20385;-70
2021/03/13 11:52:38;;;;;;;16.40;3.40;;;9.30;42.50;;;;;;5028496;28;20423;-71
2021/03/13 11:55:09;;;;;;;10.02;3.00;;;9.00;41.80;;;;;;5029573;28;20404;-70
2021/03/13 11:57:35;;;;;;;14.85;2.72;;;9.00;43.60;;;;;;5027474;28;20403;-71
2021/03/13 12:00:01;;;;;;;11.20;3.30;;;9.00;42.70;;;;;;5018605;28;20388;-72
2021/03/13 12:02:26;;;;;;;11.23;2.80;;;9.30;40.50;;;;;;5013071;28;20494;-71
2021/03/13 12:04:52;;;;;;;13.17;3.60;;;9.60;37.10;;;;;;5014304;28;20444;-73
2021/03/13 12:07:18;;;;;;;15.90;3.60;;;9.90;37.90;;;;;;5012109;28;20417;-72
2021/03/13 12:09:44;;;;;;;17.83;3.60;;;10.50;33.20;;;;;;5011093;28;20415;-71
2021/03/13 12:12:10;;;;;;;18.30;3.35;;;11.20;28.50;;;;;;5012089;28;20684;-71
2021/03/13 12:14:37;;;;;;;21.98;4.00;;;11.50;24.90;;;;;;5011660;28;20389;-71
2021/03/13 12:17:06;;;;;;;14.07;3.45;;;11.50;24.90;;;;;;5010610;28;20392;-72
2021/03/13 12:19:32;;;;;;;19.73;3.60;;;11.40;24.10;;;;;;5010537;28;20399;-71
2021/03/13 12:21:59;;;;;;;23.00;3.47;;;11.20;26.60;;;;;;5011016;28;20467;-71
2021/03/13 12:24:25;;;;;;;18.48;3.42;;;11.00;27.20;;;;;;5010323;28;20404;-71
2021/03/13 12:26:51;;;;;;;16.60;3.65;;;10.70;27.00;;;;;;5012264;28;20446;-70
2021/03/13 12:29:16;;;;;;;15.83;3.20;;;10.40;31.70;;;;;;5013773;28;20384;-71
2021/03/13 12:31:42;;;;;;;15.77;2.90;;;9.90;31.60;;;;;;5014000;28;20437;-72
2021/03/13 12:34:08;;;;;;;13.30;2.60;;;9.30;35.60;;;;;;5013572;28;20786;-73
2021/03/13 12:36:33;;;;;;;7.97;1.80;;;8.70;42.00;;;;;;5013800;28;20874;-71
2021/03/13 12:38:59;;;;;;;9.13;1.80;;;8.10;58.40;;;;;;5013918;28;20396;-71
2021/03/13 12:41:25;;;;;;;12.10;2.50;;;7.90;60.40;;;;;;5014467;28;20750;-70
2021/03/13 12:43:50;;;;;;;12.32;3.08;;;7.90;59.40;;;;;;5015423;28;20408;-71
2021/03/13 12:46:17;;;;;;;20.42;3.10;;;7.80;64.00;;;;;;5014464;28;20440;-71
2021/03/13 12:48:43;;;;;;;9.30;2.40;;;8.10;58.70;;;;;;5014095;28;20890;-73
2021/03/13 12:51:09;;;;;;;10.98;2.30;;;8.40;59.10;;;;;;5013697;28;20879;-72
2021/03/13 12:53:35;;;;;;;13.93;2.70;;;8.70;54.20;;;;;;5013562;28;20381;-72
2021/03/13 12:56:00;;;;;;;12.65;3.90;;;9.10;52.40;;;;;;5013696;28;20407;-72
2021/03/13 12:58:26;;;;;;;15.10;3.57;;;9.40;47.10;;;;;;5013190;28;20459;-72
2021/03/13 13:00:52;;;;;;;18.50;3.20;;;9.70;41.80;;;;;;5015462;28;20559;-71
2021/03/13 13:03:17;;;;;;;11.03;2.40;;;9.90;37.00;;;;;;5015521;28;20491;-71